sensor_id;sensor_type;location;lat;lon;timestamp;P1;durP1;ratioP1;P2;durP2;ratioP2
1206;SDS011;593;53.184;8.216;2022-12-07T00:01:29;7.63;;;4.72;;
1206;SDS011;593;53.184;8.216;2022-12-07T00:03:57;8.90;;;4.80;;
1206;SDS011;593;53.184;8.216;2022-12-07T00:06:40;9.35;;;4.30;;
1206;SDS011;593;53.184;8.216;2022-12-07T00:09:07;7.32;;;4.30;;
1206;SDS011;593;53.184;8.216;2022-12-07T00:11:36;9.52;;;4.85;;
1206;SDS011;593;53.184;8.216;2022-12-07T00:14:02;10.17;;;5.63;;
1206;SDS011;593;53.184;8.216;2022-12-07T00:16:31;6.75;;;4.90;;
1206;SDS011;593;53.184;8.216;2022-12-07T00:18:58;7.47;;;4.05;;
1206;SDS011;593;53.184;8.216;2022-12-07T00:21:25;8.80;;;5.20;;
1206;SDS011;593;53.184;8.216;2022-12-07T00:23:53;8.60;;;4.85;;
1206;SDS011;593;53.184;8.216;2022-12-07T00:26:24;6.68;;;4.72;;
1206;SDS011;593;53.184;8.216;2022-12-07T00:28:57;6.82;;;4.65;;
1206;SDS011;593;53.184;8.216;2022-12-07T00:31:28;5.38;;;3.15;;
1206;SDS011;593;53.184;8.216;2022-12-07T00:33:58;2.92;;;2.03;;
1206;SDS011;593;53.184;8.216;2022-12-07T00:36:23;4.60;;;2.43;;
1206;SDS011;593;53.184;8.216;2022-12-07T00:38:49;7.18;;;2.80;;
1206;SDS011;593;53.184;8.216;2022-12-07T00:41:19;4.90;;;2.90;;
1206;SDS011;593;53.184;8.216;2022-12-07T00:43:47;2.65;;;1.92;;
1206;SDS011;593;53.184;8.216;2022-12-07T00:46:13;2.40;;;1.88;;
1206;SDS011;593;53.184;8.216;2022-12-07T00:48:39;2.03;;;1.73;;
1206;SDS011;593;53.184;8.216;2022-12-07T00:51:05;4.93;;;1.90;;
1206;SDS011;593;53.184;8.216;2022-12-07T00:53:34;4.30;;;1.85;;
1206;SDS011;593;53.184;8.216;2022-12-07T00:56:17;2.55;;;1.60;;
1206;SDS011;593;53.184;8.216;2022-12-07T00:58:44;2.40;;;1.30;;
1206;SDS011;593;53.184;8.216;2022-12-07T01:01:15;2.92;;;1.38;;
1206;SDS011;593;53.184;8.216;2022-12-07T01:03:40;2.03;;;1.00;;
1206;SDS011;593;53.184;8.216;2022-12-07T01:06:06;2.57;;;1.83;;
1206;SDS011;593;53.184;8.216;2022-12-07T01:08:31;2.23;;;1.60;;
1206;SDS011;593;53.184;8.216;2022-12-07T01:10:57;1.63;;;1.50;;
1206;SDS011;593;53.184;8.216;2022-12-07T01:13:24;2.15;;;1.50;;
1206;SDS011;593;53.184;8.216;2022-12-07T01:15:50;2.33;;;2.10;;
1206;SDS011;593;53.184;8.216;2022-12-07T01:18:15;3.40;;;1.53;;
1206;SDS011;593;53.184;8.216;2022-12-07T01:20:40;2.37;;;1.60;;
1206;SDS011;593;53.184;8.216;2022-12-07T01:23:06;2.23;;;1.87;;
1206;SDS011;593;53.184;8.216;2022-12-07T01:25:31;3.60;;;1.47;;
1206;SDS011;593;53.184;8.216;2022-12-07T01:27:57;2.80;;;1.93;;
1206;SDS011;593;53.184;8.216;2022-12-07T01:30:22;4.70;;;1.40;;
1206;SDS011;593;53.184;8.216;2022-12-07T01:32:48;3.23;;;1.83;;
1206;SDS011;593;53.184;8.216;2022-12-07T01:35:13;1.23;;;1.13;;
1206;SDS011;593;53.184;8.216;2022-12-07T01:37:38;2.70;;;1.87;;
1206;SDS011;593;53.184;8.216;2022-12-07T01:40:05;2.37;;;1.73;;
1206;SDS011;593;53.184;8.216;2022-12-07T01:42:31;4.93;;;1.90;;
1206;SDS011;593;53.184;8.216;2022-12-07T01:47:42;2.75;;;1.65;;
1206;SDS011;593;53.184;8.216;2022-12-07T01:50:09;2.75;;;2.22;;
1206;SDS011;593;53.184;8.216;2022-12-07T01:52:35;3.77;;;2.13;;
1206;SDS011;593;53.184;8.216;2022-12-07T01:55:04;3.47;;;2.25;;
1206;SDS011;593;53.184;8.216;2022-12-07T01:57:34;3.58;;;1.85;;
1206;SDS011;593;53.184;8.216;2022-12-07T02:00:04;3.83;;;1.60;;
1206;SDS011;593;53.184;8.216;2022-12-07T02:02:31;6.40;;;2.25;;
1206;SDS011;593;53.184;8.216;2022-12-07T02:05:00;4.30;;;1.70;;
1206;SDS011;593;53.184;8.216;2022-12-07T02:07:27;2.95;;;2.40;;
1206;SDS011;593;53.184;8.216;2022-12-07T02:09:54;3.03;;;2.13;;
1206;SDS011;593;53.184;8.216;2022-12-07T02:12:19;5.33;;;2.67;;
1206;SDS011;593;53.184;8.216;2022-12-07T02:14:46;6.13;;;2.17;;
1206;SDS011;593;53.184;8.216;2022-12-07T02:17:28;3.00;;;2.70;;
1206;SDS011;593;53.184;8.216;2022-12-07T02:20:06;4.22;;;2.35;;
1206;SDS011;593;53.184;8.216;2022-12-07T02:25:50;5.75;;;3.00;;
1206;SDS011;593;53.184;8.216;2022-12-07T02:28:30;3.13;;;2.10;;
1206;SDS011;593;53.184;8.216;2022-12-07T02:31:01;2.55;;;2.00;;
1206;SDS011;593;53.184;8.216;2022-12-07T02:33:36;3.00;;;2.33;;
1206;SDS011;593;53.184;8.216;2022-12-07T02:38:47;3.65;;;2.88;;
1206;SDS011;593;53.184;8.216;2022-12-07T02:41:24;5.55;;;2.10;;
1206;SDS011;593;53.184;8.216;2022-12-07T02:43:55;3.85;;;2.65;;
1206;SDS011;593;53.184;8.216;2022-12-07T02:46:25;3.40;;;2.83;;
1206;SDS011;593;53.184;8.216;2022-12-07T02:48:54;3.45;;;3.10;;
1206;SDS011;593;53.184;8.216;2022-12-07T02:51:20;8.18;;;3.42;;
1206;SDS011;593;53.184;8.216;2022-12-07T02:53:46;6.68;;;3.20;;
1206;SDS011;593;53.184;8.216;2022-12-07T02:56:15;5.83;;;2.60;;
1206;SDS011;593;53.184;8.216;2022-12-07T03:05:20;5.40;;;2.58;;
1206;SDS011;593;53.184;8.216;2022-12-07T03:10:33;5.60;;;2.72;;
1206;SDS011;593;53.184;8.216;2022-12-07T03:13:23;3.70;;;3.05;;
1206;SDS011;593;53.184;8.216;2022-12-07T03:18:37;5.85;;;2.55;;
1206;SDS011;593;53.184;8.216;2022-12-07T03:21:11;2.63;;;2.30;;
1206;SDS011;593;53.184;8.216;2022-12-07T03:23:44;3.42;;;2.40;;
1206;SDS011;593;53.184;8.216;2022-12-07T03:26:13;2.97;;;2.00;;
1206;SDS011;593;53.184;8.216;2022-12-07T03:28:44;3.35;;;1.65;;
1206;SDS011;593;53.184;8.216;2022-12-07T03:31:14;2.55;;;2.35;;
1206;SDS011;593;53.184;8.216;2022-12-07T03:39:17;1.80;;;1.23;;
1206;SDS011;593;53.184;8.216;2022-12-07T03:42:06;1.55;;;1.45;;
1206;SDS011;593;53.184;8.216;2022-12-07T03:44:34;2.20;;;1.25;;
1206;SDS011;593;53.184;8.216;2022-12-07T03:47:02;3.10;;;1.42;;
1206;SDS011;593;53.184;8.216;2022-12-07T03:52:21;1.40;;;0.95;;
1206;SDS011;593;53.184;8.216;2022-12-07T03:54:57;1.00;;;0.80;;
1206;SDS011;593;53.184;8.216;2022-12-07T03:57:24;1.08;;;0.98;;
1206;SDS011;593;53.184;8.216;2022-12-07T03:59:50;0.70;;;0.70;;
1206;SDS011;593;53.184;8.216;2022-12-07T04:02:18;1.52;;;0.77;;
1206;SDS011;593;53.184;8.216;2022-12-07T04:04:44;1.13;;;0.70;;
1206;SDS011;593;53.184;8.216;2022-12-07T04:07:10;2.43;;;0.70;;
1206;SDS011;593;53.184;8.216;2022-12-07T04:09:35;2.50;;;0.70;;
1206;SDS011;593;53.184;8.216;2022-12-07T04:12:01;0.60;;;0.57;;
1206;SDS011;593;53.184;8.216;2022-12-07T04:14:26;2.83;;;0.70;;
1206;SDS011;593;53.184;8.216;2022-12-07T04:16:53;0.90;;;0.60;;
1206;SDS011;593;53.184;8.216;2022-12-07T04:19:23;1.77;;;0.60;;
1206;SDS011;593;53.184;8.216;2022-12-07T04:21:52;1.73;;;0.70;;
1206;SDS011;593;53.184;8.216;2022-12-07T04:24:18;1.97;;;0.50;;
1206;SDS011;593;53.184;8.216;2022-12-07T04:26:44;0.80;;;0.70;;
1206;SDS011;593;53.184;8.216;2022-12-07T04:29:10;1.25;;;0.63;;
1206;SDS011;593;53.184;8.216;2022-12-07T04:31:35;0.80;;;0.70;;
1206;SDS011;593;53.184;8.216;2022-12-07T04:34:01;4.70;;;0.50;;
1206;SDS011;593;53.184;8.216;2022-12-07T04:36:28;0.90;;;0.57;;
1206;SDS011;593;53.184;8.216;2022-12-07T04:38:54;0.57;;;0.50;;
1206;SDS011;593;53.184;8.216;2022-12-07T04:41:20;1.23;;;0.60;;
1206;SDS011;593;53.184;8.216;2022-12-07T04:43:58;0.60;;;0.50;;
1206;SDS011;593;53.184;8.216;2022-12-07T04:46:26;0.80;;;0.40;;
1206;SDS011;593;53.184;8.216;2022-12-07T04:48:53;0.60;;;0.60;;
1206;SDS011;593;53.184;8.216;2022-12-07T04:51:20;2.80;;;0.52;;
1206;SDS011;593;53.184;8.216;2022-12-07T04:53:47;1.95;;;0.40;;
1206;SDS011;593;53.184;8.216;2022-12-07T04:56:13;3.03;;;0.50;;
1206;SDS011;593;53.184;8.216;2022-12-07T04:58:40;0.50;;;0.38;;
1206;SDS011;593;53.184;8.216;2022-12-07T05:01:06;1.80;;;0.40;;
1206;SDS011;593;53.184;8.216;2022-12-07T05:03:31;2.30;;;0.50;;
1206;SDS011;593;53.184;8.216;2022-12-07T05:05:57;1.10;;;0.50;;
1206;SDS011;593;53.184;8.216;2022-12-07T05:08:22;1.13;;;0.40;;
1206;SDS011;593;53.184;8.216;2022-12-07T05:10:50;5.80;;;0.70;;
1206;SDS011;593;53.184;8.216;2022-12-07T05:13:16;1.85;;;0.50;;
1206;SDS011;593;53.184;8.216;2022-12-07T05:15:41;1.43;;;0.40;;
1206;SDS011;593;53.184;8.216;2022-12-07T05:18:08;1.52;;;0.63;;
1206;SDS011;593;53.184;8.216;2022-12-07T05:20:35;2.65;;;1.48;;
1206;SDS011;593;53.184;8.216;2022-12-07T05:23:00;0.90;;;0.50;;
1206;SDS011;593;53.184;8.216;2022-12-07T05:25:25;0.70;;;0.50;;
1206;SDS011;593;53.184;8.216;2022-12-07T05:27:51;1.10;;;0.40;;
1206;SDS011;593;53.184;8.216;2022-12-07T05:30:16;1.47;;;0.50;;
1206;SDS011;593;53.184;8.216;2022-12-07T05:32:41;2.10;;;0.60;;
1206;SDS011;593;53.184;8.216;2022-12-07T05:35:07;0.60;;;0.50;;
1206;SDS011;593;53.184;8.216;2022-12-07T05:37:32;0.60;;;0.50;;
1206;SDS011;593;53.184;8.216;2022-12-07T05:39:58;0.83;;;0.43;;
1206;SDS011;593;53.184;8.216;2022-12-07T05:42:23;2.63;;;0.50;;
1206;SDS011;593;53.184;8.216;2022-12-07T05:44:48;0.60;;;0.50;;
1206;SDS011;593;53.184;8.216;2022-12-07T05:47:14;1.77;;;0.60;;
1206;SDS011;593;53.184;8.216;2022-12-07T05:49:40;2.57;;;0.80;;
1206;SDS011;593;53.184;8.216;2022-12-07T05:52:05;1.03;;;0.70;;
1206;SDS011;593;53.184;8.216;2022-12-07T05:54:31;0.60;;;0.60;;
1206;SDS011;593;53.184;8.216;2022-12-07T05:56:56;1.93;;;0.77;;
1206;SDS011;593;53.184;8.216;2022-12-07T05:59:21;2.63;;;0.80;;
1206;SDS011;593;53.184;8.216;2022-12-07T06:01:48;3.93;;;0.70;;
1206;SDS011;593;53.184;8.216;2022-12-07T06:04:14;2.17;;;0.95;;
1206;SDS011;593;53.184;8.216;2022-12-07T06:06:39;1.47;;;1.37;;
1206;SDS011;593;53.184;8.216;2022-12-07T06:09:05;4.67;;;0.80;;
1206;SDS011;593;53.184;8.216;2022-12-07T06:11:31;2.55;;;0.98;;
1206;SDS011;593;53.184;8.216;2022-12-07T06:14:14;2.80;;;0.80;;
1206;SDS011;593;53.184;8.216;2022-12-07T06:16:40;2.50;;;1.30;;
1206;SDS011;593;53.184;8.216;2022-12-07T06:19:06;4.67;;;0.77;;
1206;SDS011;593;53.184;8.216;2022-12-07T06:21:31;5.53;;;0.70;;
1206;SDS011;593;53.184;8.216;2022-12-07T06:23:56;5.10;;;1.33;;
1206;SDS011;593;53.184;8.216;2022-12-07T06:26:22;1.47;;;0.80;;
1206;SDS011;593;53.184;8.216;2022-12-07T06:28:47;0.90;;;0.50;;
1206;SDS011;593;53.184;8.216;2022-12-07T06:31:12;0.90;;;0.60;;
1206;SDS011;593;53.184;8.216;2022-12-07T06:33:38;1.40;;;1.30;;
1206;SDS011;593;53.184;8.216;2022-12-07T06:36:03;1.80;;;0.97;;
1206;SDS011;593;53.184;8.216;2022-12-07T06:38:29;1.10;;;0.80;;
1206;SDS011;593;53.184;8.216;2022-12-07T06:40:54;1.30;;;0.90;;
1206;SDS011;593;53.184;8.216;2022-12-07T06:43:19;1.37;;;0.80;;
1206;SDS011;593;53.184;8.216;2022-12-07T06:45:45;2.30;;;0.87;;
1206;SDS011;593;53.184;8.216;2022-12-07T06:48:10;0.53;;;0.43;;
1206;SDS011;593;53.184;8.216;2022-12-07T06:50:35;4.10;;;0.50;;
1206;SDS011;593;53.184;8.216;2022-12-07T06:53:01;4.20;;;0.60;;
1206;SDS011;593;53.184;8.216;2022-12-07T06:55:26;0.60;;;0.40;;
1206;SDS011;593;53.184;8.216;2022-12-07T06:57:51;0.60;;;0.50;;
1206;SDS011;593;53.184;8.216;2022-12-07T07:00:17;1.90;;;0.60;;
1206;SDS011;593;53.184;8.216;2022-12-07T07:02:42;1.13;;;0.30;;
1206;SDS011;593;53.184;8.216;2022-12-07T07:05:08;7.07;;;1.00;;
1206;SDS011;593;53.184;8.216;2022-12-07T07:07:33;2.30;;;0.70;;
1206;SDS011;593;53.184;8.216;2022-12-07T07:09:59;3.33;;;1.00;;
1206;SDS011;593;53.184;8.216;2022-12-07T07:12:24;3.33;;;1.40;;
1206;SDS011;593;53.184;8.216;2022-12-07T07:14:49;1.10;;;0.83;;
1206;SDS011;593;53.184;8.216;2022-12-07T07:17:15;1.10;;;0.70;;
1206;SDS011;593;53.184;8.216;2022-12-07T07:19:40;2.17;;;0.57;;
1206;SDS011;593;53.184;8.216;2022-12-07T07:22:06;4.10;;;0.70;;
1206;SDS011;593;53.184;8.216;2022-12-07T07:24:31;2.70;;;0.50;;
1206;SDS011;593;53.184;8.216;2022-12-07T07:26:56;2.97;;;2.87;;
1206;SDS011;593;53.184;8.216;2022-12-07T07:29:22;2.60;;;0.70;;
1206;SDS011;593;53.184;8.216;2022-12-07T07:31:48;0.87;;;0.50;;
1206;SDS011;593;53.184;8.216;2022-12-07T07:34:13;1.60;;;0.40;;
1206;SDS011;593;53.184;8.216;2022-12-07T07:36:39;0.60;;;0.60;;
1206;SDS011;593;53.184;8.216;2022-12-07T07:39:04;0.50;;;0.50;;
1206;SDS011;593;53.184;8.216;2022-12-07T07:41:30;0.77;;;0.73;;
1206;SDS011;593;53.184;8.216;2022-12-07T07:43:56;0.90;;;0.77;;
1206;SDS011;593;53.184;8.216;2022-12-07T07:46:22;0.70;;;0.50;;
1206;SDS011;593;53.184;8.216;2022-12-07T07:48:48;1.33;;;1.23;;
1206;SDS011;593;53.184;8.216;2022-12-07T07:51:13;1.90;;;0.60;;
1206;SDS011;593;53.184;8.216;2022-12-07T07:53:39;0.80;;;0.60;;
1206;SDS011;593;53.184;8.216;2022-12-07T07:56:04;0.57;;;0.50;;
1206;SDS011;593;53.184;8.216;2022-12-07T07:58:29;0.73;;;0.50;;
1206;SDS011;593;53.184;8.216;2022-12-07T08:00:55;1.67;;;0.80;;
1206;SDS011;593;53.184;8.216;2022-12-07T08:03:20;0.93;;;0.70;;
1206;SDS011;593;53.184;8.216;2022-12-07T08:05:45;1.63;;;0.60;;
1206;SDS011;593;53.184;8.216;2022-12-07T08:08:11;1.20;;;0.60;;
1206;SDS011;593;53.184;8.216;2022-12-07T08:10:36;1.33;;;0.60;;
1206;SDS011;593;53.184;8.216;2022-12-07T08:13:02;1.38;;;0.50;;
1206;SDS011;593;53.184;8.216;2022-12-07T08:15:39;0.52;;;0.45;;
1206;SDS011;593;53.184;8.216;2022-12-07T08:18:06;0.60;;;0.50;;
1206;SDS011;593;53.184;8.216;2022-12-07T08:20:32;1.23;;;0.50;;
1206;SDS011;593;53.184;8.216;2022-12-07T08:22:58;0.50;;;0.47;;
1206;SDS011;593;53.184;8.216;2022-12-07T08:25:24;3.47;;;0.75;;
1206;SDS011;593;53.184;8.216;2022-12-07T08:27:50;3.45;;;0.60;;
1206;SDS011;593;53.184;8.216;2022-12-07T08:30:16;1.48;;;0.52;;
1206;SDS011;593;53.184;8.216;2022-12-07T08:32:43;0.87;;;0.63;;
1206;SDS011;593;53.184;8.216;2022-12-07T08:35:09;0.50;;;0.50;;
1206;SDS011;593;53.184;8.216;2022-12-07T08:37:34;1.10;;;0.60;;
1206;SDS011;593;53.184;8.216;2022-12-07T08:40:00;0.60;;;0.50;;
1206;SDS011;593;53.184;8.216;2022-12-07T08:42:26;2.30;;;0.57;;
1206;SDS011;593;53.184;8.216;2022-12-07T08:44:54;0.98;;;0.80;;
1206;SDS011;593;53.184;8.216;2022-12-07T08:47:22;0.70;;;0.60;;
1206;SDS011;593;53.184;8.216;2022-12-07T08:49:49;1.60;;;0.60;;
1206;SDS011;593;53.184;8.216;2022-12-07T08:52:16;1.15;;;0.60;;
1206;SDS011;593;53.184;8.216;2022-12-07T08:54:43;0.70;;;0.70;;
1206;SDS011;593;53.184;8.216;2022-12-07T08:57:09;1.85;;;0.50;;
1206;SDS011;593;53.184;8.216;2022-12-07T08:59:35;0.90;;;0.90;;
1206;SDS011;593;53.184;8.216;2022-12-07T09:02:02;1.00;;;0.90;;
1206;SDS011;593;53.184;8.216;2022-12-07T09:04:27;2.10;;;0.93;;
1206;SDS011;593;53.184;8.216;2022-12-07T09:06:53;4.63;;;1.10;;
1206;SDS011;593;53.184;8.216;2022-12-07T09:09:19;3.30;;;0.85;;
1206;SDS011;593;53.184;8.216;2022-12-07T09:11:44;8.77;;;1.10;;
1206;SDS011;593;53.184;8.216;2022-12-07T09:14:10;1.33;;;0.73;;
1206;SDS011;593;53.184;8.216;2022-12-07T09:16:37;3.88;;;0.60;;
1206;SDS011;593;53.184;8.216;2022-12-07T09:19:02;1.40;;;0.70;;
1206;SDS011;593;53.184;8.216;2022-12-07T09:21:28;1.90;;;0.80;;
1206;SDS011;593;53.184;8.216;2022-12-07T09:23:53;0.93;;;0.60;;
1206;SDS011;593;53.184;8.216;2022-12-07T09:26:18;2.23;;;0.70;;
1206;SDS011;593;53.184;8.216;2022-12-07T09:28:44;3.17;;;1.00;;
1206;SDS011;593;53.184;8.216;2022-12-07T09:31:09;1.27;;;0.70;;
1206;SDS011;593;53.184;8.216;2022-12-07T09:33:34;3.93;;;0.73;;
1206;SDS011;593;53.184;8.216;2022-12-07T09:36:00;1.00;;;0.70;;
1206;SDS011;593;53.184;8.216;2022-12-07T09:38:25;1.27;;;0.70;;
1206;SDS011;593;53.184;8.216;2022-12-07T09:40:51;0.60;;;0.60;;
1206;SDS011;593;53.184;8.216;2022-12-07T09:43:20;1.92;;;0.88;;
1206;SDS011;593;53.184;8.216;2022-12-07T09:45:48;1.10;;;0.70;;
1206;SDS011;593;53.184;8.216;2022-12-07T09:48:25;2.42;;;0.75;;
1206;SDS011;593;53.184;8.216;2022-12-07T09:50:57;2.03;;;0.60;;
1206;SDS011;593;53.184;8.216;2022-12-07T09:53:32;2.45;;;0.70;;
1206;SDS011;593;53.184;8.216;2022-12-07T09:55:59;1.90;;;0.70;;
1206;SDS011;593;53.184;8.216;2022-12-07T09:58:26;3.83;;;0.93;;
1206;SDS011;593;53.184;8.216;2022-12-07T10:00:58;1.10;;;0.80;;
1206;SDS011;593;53.184;8.216;2022-12-07T10:03:26;1.48;;;0.70;;
1206;SDS011;593;53.184;8.216;2022-12-07T10:05:53;1.73;;;0.50;;
1206;SDS011;593;53.184;8.216;2022-12-07T10:08:20;1.70;;;0.70;;
1206;SDS011;593;53.184;8.216;2022-12-07T10:10:46;1.40;;;0.60;;
1206;SDS011;593;53.184;8.216;2022-12-07T10:13:21;1.48;;;0.77;;
1206;SDS011;593;53.184;8.216;2022-12-07T10:15:58;1.90;;;0.77;;
1206;SDS011;593;53.184;8.216;2022-12-07T10:18:37;1.63;;;0.73;;
1206;SDS011;593;53.184;8.216;2022-12-07T10:21:05;3.50;;;0.77;;
1206;SDS011;593;53.184;8.216;2022-12-07T10:23:35;1.73;;;0.60;;
1206;SDS011;593;53.184;8.216;2022-12-07T10:26:21;1.40;;;0.50;;
1206;SDS011;593;53.184;8.216;2022-12-07T10:28:53;1.88;;;0.70;;
1206;SDS011;593;53.184;8.216;2022-12-07T10:31:20;1.70;;;0.63;;
1206;SDS011;593;53.184;8.216;2022-12-07T10:33:52;1.80;;;0.93;;
1206;SDS011;593;53.184;8.216;2022-12-07T10:38:48;1.50;;;0.60;;
1206;SDS011;593;53.184;8.216;2022-12-07T10:41:15;1.50;;;0.70;;
1206;SDS011;593;53.184;8.216;2022-12-07T10:43:48;2.10;;;0.63;;
1206;SDS011;593;53.184;8.216;2022-12-07T10:51:42;4.55;;;0.90;;
1206;SDS011;593;53.184;8.216;2022-12-07T10:54:21;4.43;;;1.17;;
1206;SDS011;593;53.184;8.216;2022-12-07T11:00:00;1.15;;;0.50;;
1206;SDS011;593;53.184;8.216;2022-12-07T11:05:18;2.25;;;0.65;;
1206;SDS011;593;53.184;8.216;2022-12-07T11:10:30;0.90;;;0.60;;
1206;SDS011;593;53.184;8.216;2022-12-07T11:18:51;1.80;;;0.70;;
1206;SDS011;593;53.184;8.216;2022-12-07T11:26:31;1.30;;;0.43;;
1206;SDS011;593;53.184;8.216;2022-12-07T11:34:51;4.30;;;0.50;;
1206;SDS011;593;53.184;8.216;2022-12-07T11:37:32;1.58;;;0.52;;
1206;SDS011;593;53.184;8.216;2022-12-07T11:40:15;1.88;;;0.50;;
1206;SDS011;593;53.184;8.216;2022-12-07T11:42:46;2.63;;;0.65;;
1206;SDS011;593;53.184;8.216;2022-12-07T11:45:26;3.15;;;0.50;;
1206;SDS011;593;53.184;8.216;2022-12-07T11:47:54;3.60;;;0.90;;
1206;SDS011;593;53.184;8.216;2022-12-07T12:01:32;1.35;;;0.85;;
1206;SDS011;593;53.184;8.216;2022-12-07T12:06:36;1.20;;;0.83;;
1206;SDS011;593;53.184;8.216;2022-12-07T12:20:17;1.05;;;0.50;;
1206;SDS011;593;53.184;8.216;2022-12-07T12:25:36;1.30;;;0.70;;
1206;SDS011;593;53.184;8.216;2022-12-07T12:28:05;1.38;;;0.60;;
1206;SDS011;593;53.184;8.216;2022-12-07T12:33:01;1.57;;;0.60;;
1206;SDS011;593;53.184;8.216;2022-12-07T12:35:33;1.70;;;0.80;;
1206;SDS011;593;53.184;8.216;2022-12-07T12:40:55;0.85;;;0.60;;
1206;SDS011;593;53.184;8.216;2022-12-07T12:43:39;4.32;;;1.05;;
1206;SDS011;593;53.184;8.216;2022-12-07T12:51:42;4.50;;;0.77;;
1206;SDS011;593;53.184;8.216;2022-12-07T12:54:18;1.10;;;0.50;;
1206;SDS011;593;53.184;8.216;2022-12-07T12:59:32;4.03;;;0.60;;
1206;SDS011;593;53.184;8.216;2022-12-07T13:10:33;3.38;;;0.40;;
1206;SDS011;593;53.184;8.216;2022-12-07T13:20:59;0.77;;;0.53;;
1206;SDS011;593;53.184;8.216;2022-12-07T13:23:33;0.75;;;0.50;;
1206;SDS011;593;53.184;8.216;2022-12-07T13:28:41;1.48;;;0.50;;
1206;SDS011;593;53.184;8.216;2022-12-07T13:34:02;6.32;;;0.90;;
1206;SDS011;593;53.184;8.216;2022-12-07T13:36:30;0.98;;;0.50;;
1206;SDS011;593;53.184;8.216;2022-12-07T13:41:42;2.45;;;1.00;;
1206;SDS011;593;53.184;8.216;2022-12-07T13:44:09;1.60;;;0.70;;
1206;SDS011;593;53.184;8.216;2022-12-07T13:49:32;1.10;;;0.80;;
1206;SDS011;593;53.184;8.216;2022-12-07T13:52:16;3.40;;;0.60;;
1206;SDS011;593;53.184;8.216;2022-12-07T13:54:47;1.38;;;0.70;;
1206;SDS011;593;53.184;8.216;2022-12-07T13:57:17;1.80;;;0.73;;
1206;SDS011;593;53.184;8.216;2022-12-07T13:59:43;2.63;;;0.50;;
1206;SDS011;593;53.184;8.216;2022-12-07T14:02:19;4.50;;;0.70;;
1206;SDS011;593;53.184;8.216;2022-12-07T14:05:36;1.60;;;0.60;;
1206;SDS011;593;53.184;8.216;2022-12-07T14:10:26;1.60;;;0.50;;
1206;SDS011;593;53.184;8.216;2022-12-07T14:12:55;2.88;;;0.50;;
1206;SDS011;593;53.184;8.216;2022-12-07T14:15:23;1.42;;;0.50;;
1206;SDS011;593;53.184;8.216;2022-12-07T14:17:53;0.95;;;0.75;;
1206;SDS011;593;53.184;8.216;2022-12-07T14:23:02;1.25;;;0.70;;
1206;SDS011;593;53.184;8.216;2022-12-07T14:25:44;1.17;;;0.60;;
1206;SDS011;593;53.184;8.216;2022-12-07T14:28:25;0.70;;;0.47;;
1206;SDS011;593;53.184;8.216;2022-12-07T14:30:54;1.45;;;0.40;;
1206;SDS011;593;53.184;8.216;2022-12-07T14:33:20;5.70;;;0.50;;
1206;SDS011;593;53.184;8.216;2022-12-07T14:35:46;2.53;;;0.50;;
1206;SDS011;593;53.184;8.216;2022-12-07T14:38:12;1.13;;;0.60;;
1206;SDS011;593;53.184;8.216;2022-12-07T14:40:38;2.20;;;0.97;;
1206;SDS011;593;53.184;8.216;2022-12-07T14:43:13;2.72;;;0.80;;
1206;SDS011;593;53.184;8.216;2022-12-07T14:45:41;1.98;;;0.70;;
1206;SDS011;593;53.184;8.216;2022-12-07T14:48:07;2.83;;;1.67;;
1206;SDS011;593;53.184;8.216;2022-12-07T14:50:37;3.13;;;1.35;;
1206;SDS011;593;53.184;8.216;2022-12-07T14:53:13;4.53;;;1.90;;
1206;SDS011;593;53.184;8.216;2022-12-07T14:55:41;2.53;;;1.20;;
1206;SDS011;593;53.184;8.216;2022-12-07T14:58:13;2.13;;;1.10;;
1206;SDS011;593;53.184;8.216;2022-12-07T15:00:40;3.65;;;0.70;;
1206;SDS011;593;53.184;8.216;2022-12-07T15:03:08;1.30;;;1.20;;
1206;SDS011;593;53.184;8.216;2022-12-07T15:05:34;1.50;;;0.70;;
1206;SDS011;593;53.184;8.216;2022-12-07T15:08:00;1.92;;;1.10;;
1206;SDS011;593;53.184;8.216;2022-12-07T15:10:27;3.20;;;1.53;;
1206;SDS011;593;53.184;8.216;2022-12-07T15:12:57;1.65;;;0.80;;
1206;SDS011;593;53.184;8.216;2022-12-07T15:15:42;1.85;;;0.80;;
1206;SDS011;593;53.184;8.216;2022-12-07T15:18:07;2.30;;;1.13;;
1206;SDS011;593;53.184;8.216;2022-12-07T15:20:32;4.47;;;0.90;;
1206;SDS011;593;53.184;8.216;2022-12-07T15:22:58;1.73;;;1.10;;
1206;SDS011;593;53.184;8.216;2022-12-07T15:25:23;2.27;;;1.00;;
1206;SDS011;593;53.184;8.216;2022-12-07T15:27:49;1.03;;;0.93;;
1206;SDS011;593;53.184;8.216;2022-12-07T15:30:14;2.40;;;1.43;;
1206;SDS011;593;53.184;8.216;2022-12-07T15:32:40;2.87;;;1.53;;
1206;SDS011;593;53.184;8.216;2022-12-07T15:35:05;1.20;;;1.10;;
1206;SDS011;593;53.184;8.216;2022-12-07T15:37:31;1.03;;;1.00;;
1206;SDS011;593;53.184;8.216;2022-12-07T15:39:56;2.87;;;1.10;;
1206;SDS011;593;53.184;8.216;2022-12-07T15:42:21;1.17;;;1.00;;
1206;SDS011;593;53.184;8.216;2022-12-07T15:44:47;1.67;;;1.20;;
1206;SDS011;593;53.184;8.216;2022-12-07T15:47:31;2.97;;;1.40;;
1206;SDS011;593;53.184;8.216;2022-12-07T15:49:58;1.75;;;1.58;;
1206;SDS011;593;53.184;8.216;2022-12-07T15:52:24;1.40;;;1.30;;
1206;SDS011;593;53.184;8.216;2022-12-07T15:54:49;1.53;;;1.40;;
1206;SDS011;593;53.184;8.216;2022-12-07T15:57:15;6.70;;;1.70;;
1206;SDS011;593;53.184;8.216;2022-12-07T15:59:40;6.07;;;2.27;;
1206;SDS011;593;53.184;8.216;2022-12-07T16:02:05;1.63;;;1.37;;
1206;SDS011;593;53.184;8.216;2022-12-07T16:04:31;2.37;;;0.90;;
1206;SDS011;593;53.184;8.216;2022-12-07T16:06:56;3.90;;;0.80;;
1206;SDS011;593;53.184;8.216;2022-12-07T16:09:22;5.03;;;1.70;;
1206;SDS011;593;53.184;8.216;2022-12-07T16:11:47;2.27;;;0.77;;
1206;SDS011;593;53.184;8.216;2022-12-07T16:14:12;1.50;;;0.70;;
1206;SDS011;593;53.184;8.216;2022-12-07T16:16:38;1.90;;;0.80;;
1206;SDS011;593;53.184;8.216;2022-12-07T16:19:05;1.00;;;0.90;;
1206;SDS011;593;53.184;8.216;2022-12-07T16:21:30;2.33;;;1.10;;
1206;SDS011;593;53.184;8.216;2022-12-07T16:23:57;1.03;;;0.93;;
1206;SDS011;593;53.184;8.216;2022-12-07T16:26:24;3.92;;;1.50;;
1206;SDS011;593;53.184;8.216;2022-12-07T16:28:50;1.80;;;1.70;;
1206;SDS011;593;53.184;8.216;2022-12-07T16:31:18;4.82;;;2.15;;
1206;SDS011;593;53.184;8.216;2022-12-07T16:33:45;2.40;;;2.00;;
1206;SDS011;593;53.184;8.216;2022-12-07T16:36:13;2.40;;;2.20;;
1206;SDS011;593;53.184;8.216;2022-12-07T16:38:42;2.15;;;1.10;;
1206;SDS011;593;53.184;8.216;2022-12-07T16:41:08;1.42;;;0.90;;
1206;SDS011;593;53.184;8.216;2022-12-07T16:43:34;2.77;;;0.80;;
1206;SDS011;593;53.184;8.216;2022-12-07T16:46:01;4.70;;;0.88;;
1206;SDS011;593;53.184;8.216;2022-12-07T16:48:26;0.70;;;0.70;;
1206;SDS011;593;53.184;8.216;2022-12-07T16:50:52;0.60;;;0.53;;
1206;SDS011;593;53.184;8.216;2022-12-07T16:53:18;0.90;;;0.60;;
1206;SDS011;593;53.184;8.216;2022-12-07T16:55:44;1.17;;;0.60;;
1206;SDS011;593;53.184;8.216;2022-12-07T16:58:13;1.83;;;0.80;;
1206;SDS011;593;53.184;8.216;2022-12-07T17:00:40;1.55;;;0.80;;
1206;SDS011;593;53.184;8.216;2022-12-07T17:03:07;2.10;;;0.75;;
1206;SDS011;593;53.184;8.216;2022-12-07T17:05:36;0.70;;;0.60;;
1206;SDS011;593;53.184;8.216;2022-12-07T17:08:03;1.08;;;0.80;;
1206;SDS011;593;53.184;8.216;2022-12-07T17:10:29;0.90;;;0.77;;
1206;SDS011;593;53.184;8.216;2022-12-07T17:12:54;1.83;;;1.13;;
1206;SDS011;593;53.184;8.216;2022-12-07T17:15:20;3.43;;;1.20;;
1206;SDS011;593;53.184;8.216;2022-12-07T17:17:52;1.30;;;1.17;;
1206;SDS011;593;53.184;8.216;2022-12-07T17:20:17;1.50;;;1.40;;
1206;SDS011;593;53.184;8.216;2022-12-07T17:22:44;1.98;;;1.60;;
1206;SDS011;593;53.184;8.216;2022-12-07T17:25:11;1.98;;;1.33;;
1206;SDS011;593;53.184;8.216;2022-12-07T17:27:37;3.03;;;2.15;;
1206;SDS011;593;53.184;8.216;2022-12-07T17:30:03;1.80;;;1.70;;
1206;SDS011;593;53.184;8.216;2022-12-07T17:32:29;3.40;;;2.47;;
1206;SDS011;593;53.184;8.216;2022-12-07T17:34:55;2.10;;;2.00;;
1206;SDS011;593;53.184;8.216;2022-12-07T17:37:20;3.83;;;3.43;;
1206;SDS011;593;53.184;8.216;2022-12-07T17:39:45;5.33;;;3.20;;
1206;SDS011;593;53.184;8.216;2022-12-07T17:42:11;3.53;;;3.23;;
1206;SDS011;593;53.184;8.216;2022-12-07T17:44:55;3.08;;;2.88;;
1206;SDS011;593;53.184;8.216;2022-12-07T17:47:20;5.47;;;3.33;;
1206;SDS011;593;53.184;8.216;2022-12-07T17:49:46;2.77;;;2.57;;
1206;SDS011;593;53.184;8.216;2022-12-07T17:52:12;2.67;;;2.47;;